CheckWX is a tool to help pilots better visualize weather data.  It is not intended as a substitute for an official pre-flight weather briefing.

02:30:24 UTC

3J7 METAR
Greene County Regional Airport
Greensboro, Georgia, USA
Current

35 mins ago

K3J7 180155Z AUTO 00000KT 1/2SM FG OVC003 09/08 A2987 RMK AO2
Observed
Feb-18 @ 01:55 UTC
Visibility
1/2 SM
Flight Rules
LIFR
Conditions
Fog
Cloud Levels
  • Overcast at 300' AGL
Temperature
C / 48°F
Dewpoint
C / 46°F
Humidity
94%
Altimeter
29.87" Hg
Pressure
1011.52 hPa
Previous

55 mins ago

K3J7 180135Z AUTO 00000KT 1/2SM FG OVC003 09/08 A2988 RMK AO2
Observed
Feb-18 @ 01:35 UTC
Visibility
1/2 SM
Flight Rules
LIFR
Conditions
Fog
Cloud Levels
  • Overcast at 300' AGL
Temperature
C / 48°F
Dewpoint
C / 46°F
Humidity
94%
Altimeter
29.88" Hg
Pressure
1011.82 hPa
Previous

1 hour ago

K3J7 180115Z AUTO 00000KT 1SM BR OVC003 09/09 A2989 RMK AO2
Observed
Feb-18 @ 01:15 UTC
Visibility
1 SM
Flight Rules
LIFR
Conditions
Mist
Cloud Levels
  • Overcast at 300' AGL
Temperature
C / 48°F
Dewpoint
C / 48°F
Humidity
100%
Altimeter
29.89" Hg
Pressure
1012.22 hPa